Time;durP1;ratioP1;P1;durP2;ratioP2;P2;SDS_P1;SDS_P2;PMS_P1;PMS_P2;Temp;Humidity;BMP_temperature;BMP_pressure;BME280_temperature;BME280_humidity;BME280_pressure;Samples;Min_cycle;Max_cycle;Signal;HPM_P1;HPM_P2
2023/05/11 00:02:14;;;;;;;35.97;18.17;;;;;;;;;;5032241;28;20104;-59
2023/05/11 00:04:40;;;;;;;38.67;18.97;;;;;;;;;;5038998;28;20045;-59
2023/05/11 00:07:07;;;;;;;34.53;15.90;;;;;;;;;;5052282;28;20041;-58
2023/05/11 00:09:34;;;;;;;38.73;17.60;;;;;;;;;;5051576;28;20056;-59
2023/05/11 00:12:01;;;;;;;41.93;19.93;;;;;;;;;;5046732;28;20128;-59
2023/05/11 00:14:27;;;;;;;42.63;19.43;;;;;;;;;;5032047;28;20053;-59
2023/05/11 00:16:53;;;;;;;35.00;17.23;;;;;;;;;;5032570;28;20100;-59
2023/05/11 00:19:19;;;;;;;43.30;19.93;;;;;;;;;;5037961;28;20041;-59
2023/05/11 00:21:45;;;;;;;52.93;22.40;;;;;;;;;;5049346;28;20558;-59
2023/05/11 00:24:11;;;;;;;47.60;21.27;;;;;;;;;;5051883;28;20561;-59
2023/05/11 00:26:37;;;;;;;44.77;20.20;;;;;;;;;;5050845;28;20045;-59
2023/05/11 00:29:04;;;;;;;48.93;21.70;;;;;;;;;;5047452;28;20041;-59
2023/05/11 00:31:31;;;;;;;51.13;21.57;;;;;;;;;;5031287;28;20053;-59
2023/05/11 00:33:57;;;;;;;50.20;22.80;;;;;;;;;;5035950;28;20402;-59
2023/05/11 00:36:23;;;;;;;38.07;19.23;;;;;;;;;;5051844;28;20045;-59
2023/05/11 00:38:49;;;;;;;65.13;25.83;;;;;;;;;;5050735;28;20507;-59
2023/05/11 00:41:15;;;;;;;57.90;24.63;;;;;;;;;;5051203;28;20131;-59
2023/05/11 00:43:41;;;;;;;59.73;25.13;;;;;;;;;;5051367;28;20049;-59
2023/05/11 00:46:08;;;;;;;54.70;23.00;;;;;;;;;;5045654;28;20061;-59
2023/05/11 00:48:34;;;;;;;77.30;28.80;;;;;;;;;;5031759;28;20033;-59
2023/05/11 00:51:00;;;;;;;57.07;23.93;;;;;;;;;;5044576;28;20063;-59
2023/05/11 00:53:26;;;;;;;57.87;25.60;;;;;;;;;;5051676;28;20410;-59
2023/05/11 00:55:53;;;;;;;61.97;26.87;;;;;;;;;;5048686;28;20114;-59
2023/05/11 00:58:19;;;;;;;63.70;27.00;;;;;;;;;;5050310;28;20136;-59
2023/05/11 01:00:46;;;;;;;63.33;26.20;;;;;;;;;;5051417;28;20045;-59
2023/05/11 01:03:13;;;;;;;58.13;23.37;;;;;;;;;;5047099;28;20077;-59
2023/05/11 01:05:45;;;;;;;66.50;27.10;;;;;;;;;;5051458;28;20087;-59
2023/05/11 01:08:19;;;;;;;57.67;25.37;;;;;;;;;;5051199;28;20044;-59
2023/05/11 01:10:50;;;;;;;67.67;26.60;;;;;;;;;;5050250;28;20045;-60
2023/05/11 01:13:26;;;;;;;56.13;24.50;;;;;;;;;;5051278;28;20045;-59
2023/05/11 01:15:56;;;;;;;58.03;23.57;;;;;;;;;;5050674;28;20391;-59
2023/05/11 01:18:28;;;;;;;58.10;25.07;;;;;;;;;;5031108;28;20085;-59
2023/05/11 01:20:56;;;;;;;47.20;22.30;;;;;;;;;;5042107;28;20126;-59
2023/05/11 01:23:29;;;;;;;45.10;21.47;;;;;;;;;;5051006;28;20059;-59
2023/05/11 01:26:07;;;;;;;57.37;25.47;;;;;;;;;;5050747;28;20040;-59
2023/05/11 01:28:51;;;;;;;54.73;24.17;;;;;;;;;;5050613;28;20045;-59
2023/05/11 01:31:17;;;;;;;62.13;25.17;;;;;;;;;;5048167;28;20056;-60
2023/05/11 01:33:57;;;;;;;73.43;28.53;;;;;;;;;;5049762;28;20072;-60
2023/05/11 01:36:26;;;;;;;68.93;27.70;;;;;;;;;;5048461;28;20091;-59
2023/05/11 01:38:54;;;;;;;59.50;25.37;;;;;;;;;;5048893;28;20052;-59
2023/05/11 01:41:21;;;;;;;47.30;22.27;;;;;;;;;;5049909;28;20045;-59
2023/05/11 01:43:52;;;;;;;54.47;25.70;;;;;;;;;;5049404;28;20050;-59
2023/05/11 01:46:18;;;;;;;70.87;27.87;;;;;;;;;;5037660;28;20049;-60
2023/05/11 01:48:48;;;;;;;58.00;25.37;;;;;;;;;;5029035;28;20499;-59
2023/05/11 01:51:15;;;;;;;63.33;27.40;;;;;;;;;;5029233;28;20069;-59
2023/05/11 01:53:43;;;;;;;47.03;21.60;;;;;;;;;;5030461;28;20041;-59
2023/05/11 01:56:10;;;;;;;58.33;23.83;;;;;;;;;;5029463;28;20041;-59
2023/05/11 01:58:38;;;;;;;64.23;25.20;;;;;;;;;;5029398;28;20176;-58
2023/05/11 02:01:05;;;;;;;63.87;25.30;;;;;;;;;;5040445;28;20052;-59
2023/05/11 02:03:32;;;;;;;62.90;26.23;;;;;;;;;;5049733;28;20071;-60
2023/05/11 02:05:59;;;;;;;44.33;20.90;;;;;;;;;;5049460;28;20041;-60
2023/05/11 02:08:26;;;;;;;48.90;22.17;;;;;;;;;;5049102;28;20161;-59
2023/05/11 02:10:53;;;;;;;48.67;23.20;;;;;;;;;;5048172;28;20042;-59
2023/05/11 02:13:20;;;;;;;59.93;25.50;;;;;;;;;;5049379;28;20049;-59
2023/05/11 02:15:46;;;;;;;52.53;24.53;;;;;;;;;;5048739;28;20131;-59
2023/05/11 02:18:13;;;;;;;71.73;29.50;;;;;;;;;;5048918;28;20127;-59
2023/05/11 02:20:41;;;;;;;59.80;25.53;;;;;;;;;;5048994;28;20102;-59
2023/05/11 02:23:08;;;;;;;49.33;21.50;;;;;;;;;;5048679;28;20072;-60
2023/05/11 02:25:34;;;;;;;60.27;26.17;;;;;;;;;;5049222;28;20041;-59
2023/05/11 02:28:00;;;;;;;57.27;25.17;;;;;;;;;;5046050;28;20037;-60
2023/05/11 02:30:27;;;;;;;73.03;28.90;;;;;;;;;;5048431;28;20067;-60
2023/05/11 02:32:55;;;;;;;47.57;23.90;;;;;;;;;;5047442;28;20079;-59
2023/05/11 02:35:32;;;;;;;51.47;23.33;;;;;;;;;;5048993;28;20254;-60
2023/05/11 02:37:59;;;;;;;52.73;23.50;;;;;;;;;;5048817;28;20450;-60
2023/05/11 02:40:29;;;;;;;48.67;23.57;;;;;;;;;;5048782;28;20049;-60
2023/05/11 02:42:58;;;;;;;47.77;22.90;;;;;;;;;;5045601;28;20045;-60
2023/05/11 02:45:24;;;;;;;40.93;20.63;;;;;;;;;;5035900;28;20087;-59
2023/05/11 02:47:54;;;;;;;66.90;25.73;;;;;;;;;;5048819;28;20124;-59
2023/05/11 02:50:23;;;;;;;49.77;23.63;;;;;;;;;;5048877;28;20045;-59
2023/05/11 02:52:50;;;;;;;52.83;22.23;;;;;;;;;;5048767;28;20053;-59
2023/05/11 02:55:17;;;;;;;63.43;26.97;;;;;;;;;;5048528;28;20041;-59
2023/05/11 02:57:44;;;;;;;69.57;30.13;;;;;;;;;;5044970;28;20458;-59
2023/05/11 03:00:11;;;;;;;95.23;34.27;;;;;;;;;;5028920;28;20064;-59
2023/05/11 03:02:37;;;;;;;86.47;31.73;;;;;;;;;;5038057;28;20128;-59
2023/05/11 03:05:03;;;;;;;76.10;29.23;;;;;;;;;;5048828;28;20120;-59
2023/05/11 03:07:30;;;;;;;72.30;28.77;;;;;;;;;;5048729;28;20048;-60
2023/05/11 03:09:56;;;;;;;55.77;24.73;;;;;;;;;;5048220;28;20128;-60
2023/05/11 03:12:23;;;;;;;77.63;30.00;;;;;;;;;;5046462;28;20076;-59
2023/05/11 03:14:49;;;;;;;64.47;27.27;;;;;;;;;;5028419;28;20046;-59
2023/05/11 03:17:16;;;;;;;65.23;27.17;;;;;;;;;;5028441;28;20046;-59
2023/05/11 03:19:42;;;;;;;60.23;26.60;;;;;;;;;;5029432;28;20053;-60
2023/05/11 03:22:09;;;;;;;68.63;28.37;;;;;;;;;;5028521;28;20049;-59
2023/05/11 03:24:35;;;;;;;68.37;29.13;;;;;;;;;;5028627;28;20511;-60
2023/05/11 03:27:03;;;;;;;83.50;31.00;;;;;;;;;;5028530;28;20046;-59
2023/05/11 03:29:29;;;;;;;78.90;32.00;;;;;;;;;;5028057;28;20496;-60
2023/05/11 03:31:55;;;;;;;72.47;30.10;;;;;;;;;;5027841;28;20472;-59
2023/05/11 03:34:21;;;;;;;88.93;31.50;;;;;;;;;;5031797;28;20053;-59
2023/05/11 03:36:48;;;;;;;67.30;28.00;;;;;;;;;;5042283;28;20052;-60
2023/05/11 03:39:15;;;;;;;67.37;27.37;;;;;;;;;;5052087;28;20053;-59
2023/05/11 03:41:42;;;;;;;65.77;26.83;;;;;;;;;;5036313;28;20045;-59
2023/05/11 03:44:10;;;;;;;68.73;28.93;;;;;;;;;;5031302;28;20046;-59
2023/05/11 03:46:38;;;;;;;85.57;31.33;;;;;;;;;;5032012;28;20124;-59
2023/05/11 03:49:05;;;;;;;85.83;32.87;;;;;;;;;;5031805;28;20064;-60
2023/05/11 03:51:31;;;;;;;77.70;29.23;;;;;;;;;;5037577;28;20415;-60
2023/05/11 03:53:58;;;;;;;105.20;34.20;;;;;;;;;;5050644;28;20048;-59
2023/05/11 03:56:24;;;;;;;74.10;30.07;;;;;;;;;;5035526;28;20872;-59
2023/05/11 03:58:51;;;;;;;81.37;30.83;;;;;;;;;;5031841;28;20408;-59
2023/05/11 04:01:18;;;;;;;78.63;31.73;;;;;;;;;;5045461;28;20094;-60
2023/05/11 04:03:48;;;;;;;79.80;30.20;;;;;;;;;;5051630;28;20052;-60
2023/05/11 04:06:15;;;;;;;64.50;28.10;;;;;;;;;;5051377;28;20098;-60
2023/05/11 04:08:41;;;;;;;68.47;27.03;;;;;;;;;;5051731;28;20076;-59
2023/05/11 04:11:07;;;;;;;61.20;27.60;;;;;;;;;;5048792;28;20124;-60
2023/05/11 04:13:33;;;;;;;64.07;28.17;;;;;;;;;;5056947;28;20072;-59
2023/05/11 04:15:59;;;;;;;62.27;26.67;;;;;;;;;;5061828;28;20512;-60
2023/05/11 04:18:25;;;;;;;90.40;31.60;;;;;;;;;;5070920;28;20643;-59
2023/05/11 04:20:51;;;;;;;69.77;27.90;;;;;;;;;;5070668;28;20136;-60
2023/05/11 04:23:17;;;;;;;75.60;30.93;;;;;;;;;;5070862;28;20044;-59
2023/05/11 04:25:43;;;;;;;80.37;30.30;;;;;;;;;;5056724;28;20052;-59
2023/05/11 04:28:09;;;;;;;61.50;25.63;;;;;;;;;;5056433;28;20913;-60
2023/05/11 04:30:35;;;;;;;65.07;27.43;;;;;;;;;;5058590;28;20045;-59
2023/05/11 04:33:02;;;;;;;59.77;26.27;;;;;;;;;;5059463;28;20499;-59
2023/05/11 04:35:28;;;;;;;63.27;27.27;;;;;;;;;;5058471;28;20037;-60
2023/05/11 04:37:54;;;;;;;63.13;26.47;;;;;;;;;;5057926;28;20037;-60
2023/05/11 04:40:20;;;;;;;62.87;28.27;;;;;;;;;;5058864;28;20040;-60
2023/05/11 04:42:46;;;;;;;64.83;26.63;;;;;;;;;;5059370;28;20796;-60
2023/05/11 04:45:12;;;;;;;67.83;28.10;;;;;;;;;;5053754;28;20041;-60
2023/05/11 04:47:38;;;;;;;81.77;30.80;;;;;;;;;;5059166;28;20040;-60
2023/05/11 04:50:04;;;;;;;61.20;28.77;;;;;;;;;;5059304;28;20049;-59
2023/05/11 04:52:30;;;;;;;75.53;30.90;;;;;;;;;;5057044;28;20098;-60
2023/05/11 04:54:56;;;;;;;66.67;28.67;;;;;;;;;;5058131;28;20475;-59
2023/05/11 04:57:22;;;;;;;83.60;32.60;;;;;;;;;;5058434;28;20047;-60
2023/05/11 04:59:48;;;;;;;82.57;31.10;;;;;;;;;;5059860;28;20045;-60
2023/05/11 05:02:14;;;;;;;62.73;28.27;;;;;;;;;;5047054;28;20041;-60
2023/05/11 05:04:40;;;;;;;66.90;28.43;;;;;;;;;;5058898;28;20156;-60
2023/05/11 05:07:06;;;;;;;61.13;27.97;;;;;;;;;;5052143;28;20041;-60
2023/05/11 05:09:33;;;;;;;74.17;29.27;;;;;;;;;;5029749;28;20107;-60
2023/05/11 05:11:58;;;;;;;64.47;27.77;;;;;;;;;;5029662;28;20360;-60
2023/05/11 05:14:24;;;;;;;55.00;26.83;;;;;;;;;;5030121;28;20050;-60
2023/05/11 05:16:53;;;;;;;55.27;27.13;;;;;;;;;;5029936;28;20041;-60
2023/05/11 05:19:19;;;;;;;64.03;28.83;;;;;;;;;;5030428;28;20056;-60
2023/05/11 05:21:45;;;;;;;67.60;30.73;;;;;;;;;;5029674;28;20045;-60
2023/05/11 05:24:11;;;;;;;67.50;29.73;;;;;;;;;;5029468;28;20163;-60
2023/05/11 05:26:37;;;;;;;63.07;29.77;;;;;;;;;;5048103;28;20048;-60
2023/05/11 05:29:04;;;;;;;53.77;27.17;;;;;;;;;;5051567;28;20041;-61
2023/05/11 05:31:30;;;;;;;51.43;26.73;;;;;;;;;;5042165;28;20057;-60
2023/05/11 05:33:56;;;;;;;54.20;28.23;;;;;;;;;;5038449;28;20103;-60
2023/05/11 05:36:22;;;;;;;56.00;28.53;;;;;;;;;;5047278;28;20044;-60
2023/05/11 05:38:48;;;;;;;53.80;27.37;;;;;;;;;;5048261;28;20771;-60
2023/05/11 05:41:14;;;;;;;62.20;30.00;;;;;;;;;;5047696;28;20131;-60
2023/05/11 05:43:40;;;;;;;63.53;29.20;;;;;;;;;;5046427;28;20124;-60
2023/05/11 05:46:06;;;;;;;82.83;32.07;;;;;;;;;;5042771;28;20120;-60
2023/05/11 05:48:32;;;;;;;95.10;35.17;;;;;;;;;;5040524;28;20037;-60
2023/05/11 05:50:59;;;;;;;108.47;36.20;;;;;;;;;;5045902;28;20135;-60
2023/05/11 05:53:25;;;;;;;130.90;38.20;;;;;;;;;;5037670;28;20083;-61
2023/05/11 05:55:51;;;;;;;138.77;40.30;;;;;;;;;;5025584;28;20056;-61
2023/05/11 05:58:17;;;;;;;146.67;41.13;;;;;;;;;;5026107;28;20583;-63
2023/05/11 06:00:43;;;;;;;180.23;45.43;;;;;;;;;;5025792;28;20042;-62
2023/05/11 06:03:09;;;;;;;179.43;45.00;;;;;;;;;;5027297;28;20063;-63
2023/05/11 06:05:35;;;;;;;144.33;41.43;;;;;;;;;;5028980;28;20516;-62
2023/05/11 06:08:01;;;;;;;243.70;48.37;;;;;;;;;;5028617;28;20906;-62
2023/05/11 06:10:27;;;;;;;155.67;41.17;;;;;;;;;;5030253;28;20048;-62
2023/05/11 06:12:53;;;;;;;173.80;42.17;;;;;;;;;;5028891;28;20041;-62
2023/05/11 06:15:19;;;;;;;437.03;60.57;;;;;;;;;;5029084;28;20119;-62
2023/05/11 06:17:45;;;;;;;338.17;48.37;;;;;;;;;;5029067;28;20053;-62
2023/05/11 06:20:11;;;;;;;548.87;63.47;;;;;;;;;;5028866;28;20109;-63
2023/05/11 06:22:37;;;;;;;264.17;45.73;;;;;;;;;;5031998;28;20091;-63
2023/05/11 06:25:04;;;;;;;337.43;50.90;;;;;;;;;;5028876;28;20046;-63
2023/05/11 06:27:30;;;;;;;302.57;48.20;;;;;;;;;;5028795;28;20091;-63
2023/05/11 06:29:56;;;;;;;278.77;48.60;;;;;;;;;;5040924;28;20136;-63
2023/05/11 06:32:22;;;;;;;504.13;65.50;;;;;;;;;;5027666;28;20084;-63
2023/05/11 06:34:48;;;;;;;339.10;52.33;;;;;;;;;;5046589;28;20132;-63
2023/05/11 06:37:19;;;;;;;347.90;51.77;;;;;;;;;;5039757;28;20137;-63
2023/05/11 06:39:46;;;;;;;352.07;53.07;;;;;;;;;;5028910;28;20049;-63
2023/05/11 06:42:12;;;;;;;399.77;56.70;;;;;;;;;;5028469;28;20048;-63
2023/05/11 06:44:39;;;;;;;419.63;58.13;;;;;;;;;;5028829;28;20045;-63
2023/05/11 06:47:06;;;;;;;319.87;47.87;;;;;;;;;;5039378;28;20044;-63
2023/05/11 06:49:32;;;;;;;375.23;49.40;;;;;;;;;;5032637;28;20041;-63
2023/05/11 06:51:58;;;;;;;399.60;52.33;;;;;;;;;;5034736;28;20057;-63
2023/05/11 06:54:24;;;;;;;364.17;48.03;;;;;;;;;;5032197;28;20038;-64
2023/05/11 06:56:50;;;;;;;504.77;60.40;;;;;;;;;;5028402;28;20072;-64
2023/05/11 06:59:16;;;;;;;340.03;46.47;;;;;;;;;;5032666;28;20049;-64
2023/05/11 07:01:43;;;;;;;399.90;50.23;;;;;;;;;;5039803;28;20479;-64
2023/05/11 07:04:09;;;;;;;298.07;39.40;;;;;;;;;;5047652;28;20088;-63
2023/05/11 07:06:35;;;;;;;392.10;47.80;;;;;;;;;;5028819;28;20103;-63
2023/05/11 07:09:02;;;;;;;393.73;47.57;;;;;;;;;;5033255;28;20041;-64
2023/05/11 07:11:29;;;;;;;291.60;38.60;;;;;;;;;;5032432;28;20092;-64
2023/05/11 07:13:55;;;;;;;183.83;30.23;;;;;;;;;;5030958;28;20038;-64
2023/05/11 07:16:22;;;;;;;157.10;25.10;;;;;;;;;;5032522;28;20058;-63
2023/05/11 07:18:48;;;;;;;246.03;32.30;;;;;;;;;;5032384;28;20060;-64
2023/05/11 07:21:14;;;;;;;279.27;36.90;;;;;;;;;;5044036;28;20049;-63
2023/05/11 07:23:41;;;;;;;224.53;29.17;;;;;;;;;;5052188;28;20500;-64
2023/05/11 07:26:07;;;;;;;150.77;22.17;;;;;;;;;;5052087;28;20049;-64
2023/05/11 07:28:34;;;;;;;106.63;17.40;;;;;;;;;;5051965;28;20041;-63
2023/05/11 07:31:00;;;;;;;95.50;15.73;;;;;;;;;;5051403;28;20053;-64
2023/05/11 07:33:26;;;;;;;129.77;19.80;;;;;;;;;;5051863;28;20143;-64
2023/05/11 07:35:52;;;;;;;83.10;16.30;;;;;;;;;;5051548;28;20161;-63
2023/05/11 07:38:18;;;;;;;103.80;19.33;;;;;;;;;;5050757;28;20495;-63
2023/05/11 07:40:44;;;;;;;86.50;15.93;;;;;;;;;;5051758;28;20055;-63
2023/05/11 07:43:10;;;;;;;150.83;25.17;;;;;;;;;;5051516;28;20037;-63
2023/05/11 07:45:36;;;;;;;98.23;21.67;;;;;;;;;;5051552;28;20052;-63
2023/05/11 07:48:02;;;;;;;230.20;38.53;;;;;;;;;;5051313;28;20049;-63
2023/05/11 07:50:28;;;;;;;109.00;24.33;;;;;;;;;;5051628;28;20130;-63
2023/05/11 07:52:54;;;;;;;130.10;27.13;;;;;;;;;;5051222;28;20056;-63
2023/05/11 07:55:23;;;;;;;114.07;23.83;;;;;;;;;;5050777;28;20041;-63
2023/05/11 07:57:50;;;;;;;170.63;30.67;;;;;;;;;;5051030;28;20056;-63
2023/05/11 08:00:16;;;;;;;55.33;15.47;;;;;;;;;;5050832;28;20049;-63
2023/05/11 08:02:42;;;;;;;101.17;20.33;;;;;;;;;;5051455;28;20056;-63
2023/05/11 08:05:08;;;;;;;120.17;23.70;;;;;;;;;;5051587;28;20049;-63
2023/05/11 08:07:34;;;;;;;100.47;21.60;;;;;;;;;;5051457;28;20041;-63
2023/05/11 08:10:00;;;;;;;193.40;33.83;;;;;;;;;;5052264;28;20033;-63
2023/05/11 08:12:27;;;;;;;108.73;22.67;;;;;;;;;;5050417;28;20056;-63
2023/05/11 08:14:53;;;;;;;119.80;21.80;;;;;;;;;;5053497;28;20044;-63
2023/05/11 08:17:19;;;;;;;265.53;39.33;;;;;;;;;;5070913;28;20098;-63
2023/05/11 08:19:45;;;;;;;245.57;35.90;;;;;;;;;;5070976;28;20127;-63
2023/05/11 08:22:11;;;;;;;138.80;26.07;;;;;;;;;;5070887;28;20111;-63
2023/05/11 08:24:37;;;;;;;174.37;30.70;;;;;;;;;;5070623;28;20494;-63
2023/05/11 08:27:03;;;;;;;102.60;22.77;;;;;;;;;;5070758;28;20045;-63
2023/05/11 08:29:30;;;;;;;738.47;90.67;;;;;;;;;;5041097;28;20045;-63
2023/05/11 08:31:57;;;;;;;1240.30;133.60;;;;;;;;;;5030400;28;20054;-63
2023/05/11 08:34:23;;;;;;;286.93;40.70;;;;;;;;;;5030849;28;20081;-62
2023/05/11 08:36:49;;;;;;;264.80;35.67;;;;;;;;;;5030554;28;20041;-63
2023/05/11 08:39:16;;;;;;;587.03;62.87;;;;;;;;;;5030466;28;20057;-63
2023/05/11 08:41:42;;;;;;;395.83;49.47;;;;;;;;;;5030472;28;20045;-63
2023/05/11 08:44:08;;;;;;;1171.60;144.40;;;;;;;;;;5030816;28;20526;-63
2023/05/11 08:46:35;;;;;;;1450.60;140.00;;;;;;;;;;5049806;28;20056;-63
2023/05/11 08:49:02;;;;;;;1448.53;143.33;;;;;;;;;;5050377;28;20132;-63
2023/05/11 08:51:28;;;;;;;708.40;90.53;;;;;;;;;;5050169;28;20041;-64
2023/05/11 08:53:56;;;;;;;248.07;31.67;;;;;;;;;;5050473;28;20515;-64
2023/05/11 08:56:25;;;;;;;30.10;9.27;;;;;;;;;;5050166;28;20095;-63
2023/05/11 08:58:52;;;;;;;41.40;10.60;;;;;;;;;;5050471;28;20056;-63
2023/05/11 09:01:19;;;;;;;135.77;21.07;;;;;;;;;;5049748;28;20052;-63
2023/05/11 09:03:46;;;;;;;807.60;93.30;;;;;;;;;;5049466;28;20110;-63
2023/05/11 09:06:12;;;;;;;306.30;40.77;;;;;;;;;;5050050;28;20381;-64
2023/05/11 09:08:39;;;;;;;46.43;9.97;;;;;;;;;;5050295;28;20118;-63
2023/05/11 09:11:05;;;;;;;245.50;31.57;;;;;;;;;;5050069;28;20049;-63
2023/05/11 09:13:31;;;;;;;124.67;17.47;;;;;;;;;;5049916;28;20037;-64
2023/05/11 09:15:58;;;;;;;415.47;47.77;;;;;;;;;;5037412;28;20049;-63
2023/05/11 09:18:24;;;;;;;435.47;49.77;;;;;;;;;;5030005;28;20042;-63
2023/05/11 09:20:51;;;;;;;50.40;8.87;;;;;;;;;;5030577;28;20037;-65
2023/05/11 09:23:17;;;;;;;241.07;30.20;;;;;;;;;;5029602;28;20088;-63
2023/05/11 09:25:43;;;;;;;27.73;9.07;;;;;;;;;;5029459;28;20049;-63
2023/05/11 09:28:15;;;;;;;149.93;21.83;;;;;;;;;;5029146;28;20495;-64
2023/05/11 09:30:42;;;;;;;166.07;25.30;;;;;;;;;;5028614;28;20054;-63
2023/05/11 09:33:08;;;;;;;34.80;9.63;;;;;;;;;;5029562;28;20411;-63
2023/05/11 09:35:35;;;;;;;9.93;5.27;;;;;;;;;;5029733;28;20041;-63
2023/05/11 09:38:07;;;;;;;8.57;4.70;;;;;;;;;;5028736;28;20042;-63
2023/05/11 09:40:35;;;;;;;4.05;2.78;;;;;;;;;;5029502;28;20056;-63
2023/05/11 09:43:02;;;;;;;4.50;2.70;;;;;;;;;;5029433;28;20056;-63
2023/05/11 09:45:44;;;;;;;3.23;2.57;;;;;;;;;;5029061;28;20053;-63
2023/05/11 09:48:24;;;;;;;3.20;1.83;;;;;;;;;;5029213;28;20479;-63
2023/05/11 09:50:51;;;;;;;2.40;1.80;;;;;;;;;;5029330;28;20192;-63
2023/05/11 09:53:17;;;;;;;2.43;1.40;;;;;;;;;;5029187;28;20117;-63
2023/05/11 09:55:53;;;;;;;1.70;0.90;;;;;;;;;;5028869;28;20115;-63
2023/05/11 09:58:19;;;;;;;3.63;1.23;;;;;;;;;;5033956;28;20059;-63
2023/05/11 10:00:52;;;;;;;1.83;0.90;;;;;;;;;;5048883;28;20049;-63
2023/05/11 10:03:18;;;;;;;1.43;0.80;;;;;;;;;;5048724;28;20710;-63
2023/05/11 10:05:58;;;;;;;4.13;1.00;;;;;;;;;;5048938;28;20095;-62
2023/05/11 10:08:33;;;;;;;1.83;0.90;;;;;;;;;;5048859;28;20136;-63
2023/05/11 10:11:00;;;;;;;4.00;0.87;;;;;;;;;;5048855;28;20132;-63
2023/05/11 10:13:26;;;;;;;1.70;1.00;;;;;;;;;;5048949;28;20056;-63
2023/05/11 10:15:53;;;;;;;3.00;1.23;;;;;;;;;;5048932;28;20045;-62
2023/05/11 10:18:19;;;;;;;3.30;1.37;;;;;;;;;;5048679;28;20048;-63
2023/05/11 10:20:46;;;;;;;2.63;1.10;;;;;;;;;;5048850;28;20045;-62
2023/05/11 10:23:12;;;;;;;1.57;0.93;;;;;;;;;;5048233;28;20037;-62
2023/05/11 10:25:39;;;;;;;1.53;0.90;;;;;;;;;;5048970;28;20049;-63
2023/05/11 10:28:05;;;;;;;1.53;0.90;;;;;;;;;;5048445;28;20045;-62
2023/05/11 10:30:33;;;;;;;3.53;1.23;;;;;;;;;;5048338;28;20064;-62
2023/05/11 10:33:00;;;;;;;1.17;0.73;;;;;;;;;;5048326;28;20041;-62
2023/05/11 10:35:27;;;;;;;3.23;1.07;;;;;;;;;;5048277;28;20041;-62
2023/05/11 10:37:53;;;;;;;1.00;0.60;;;;;;;;;;5048563;28;20041;-62
2023/05/11 10:40:19;;;;;;;1.87;0.80;;;;;;;;;;5048387;28;20047;-62
2023/05/11 10:42:57;;;;;;;2.07;0.70;;;;;;;;;;5049515;28;20499;-62
2023/05/11 10:45:23;;;;;;;1.27;0.60;;;;;;;;;;5052432;28;20045;-62
2023/05/11 10:48:08;;;;;;;0.93;0.60;;;;;;;;;;5052469;28;20522;-62
2023/05/11 10:50:34;;;;;;;1.10;0.80;;;;;;;;;;5052607;28;20415;-62
2023/05/11 10:53:15;;;;;;;1.37;0.80;;;;;;;;;;5051933;28;20045;-61
2023/05/11 10:56:05;;;;;;;1.07;0.50;;;;;;;;;;5052275;28;20478;-62
2023/05/11 10:58:31;;;;;;;2.07;0.50;;;;;;;;;;5052392;28;20055;-62
2023/05/11 11:01:10;;;;;;;1.70;0.60;;;;;;;;;;5052297;28;20068;-61
2023/05/11 11:03:36;;;;;;;0.97;0.60;;;;;;;;;;5050571;28;20053;-61
2023/05/11 11:06:03;;;;;;;1.17;0.63;;;;;;;;;;5052387;28;20095;-61
2023/05/11 11:08:29;;;;;;;1.60;0.97;;;;;;;;;;5052707;28;20084;-61
2023/05/11 11:10:55;;;;;;;1.70;0.80;;;;;;;;;;5052212;28;20053;-61
2023/05/11 11:13:23;;;;;;;1.60;0.73;;;;;;;;;;5052428;28;20396;-61
2023/05/11 11:15:55;;;;;;;1.70;0.90;;;;;;;;;;5062774;28;20044;-61
2023/05/11 11:18:24;;;;;;;1.23;0.68;;;;;;;;;;5051972;28;20503;-61
2023/05/11 11:20:51;;;;;;;1.20;0.70;;;;;;;;;;5052021;28;20061;-61
2023/05/11 11:23:36;;;;;;;1.60;0.80;;;;;;;;;;5052003;28;20110;-61
2023/05/11 11:26:02;;;;;;;1.67;0.90;;;;;;;;;;5051819;28;20818;-61
2023/05/11 11:28:50;;;;;;;2.80;1.03;;;;;;;;;;5051227;28;20407;-61
2023/05/11 11:31:26;;;;;;;1.60;1.00;;;;;;;;;;5051196;28;20061;-61
2023/05/11 11:33:55;;;;;;;2.03;1.30;;;;;;;;;;5051717;28;20521;-61
2023/05/11 11:36:41;;;;;;;3.40;2.17;;;;;;;;;;5051778;28;20049;-61
2023/05/11 11:39:07;;;;;;;2.97;1.90;;;;;;;;;;5047550;28;20280;-61
2023/05/11 11:41:34;;;;;;;3.53;2.10;;;;;;;;;;5053070;28;20060;-61
2023/05/11 11:44:00;;;;;;;2.90;2.03;;;;;;;;;;5051416;28;20048;-61
2023/05/11 11:46:27;;;;;;;4.00;2.63;;;;;;;;;;5049862;28;20040;-61
2023/05/11 11:49:07;;;;;;;3.53;2.70;;;;;;;;;;5035160;28;20142;-60
2023/05/11 11:51:33;;;;;;;3.80;3.13;;;;;;;;;;5031097;28;20042;-61
2023/05/11 11:53:59;;;;;;;4.43;3.53;;;;;;;;;;5034554;28;20095;-61
2023/05/11 11:56:25;;;;;;;5.63;4.20;;;;;;;;;;5031370;28;20056;-60
2023/05/11 11:58:51;;;;;;;6.00;4.80;;;;;;;;;;5043660;28;20041;-60
2023/05/11 12:01:19;;;;;;;6.70;5.20;;;;;;;;;;5030724;28;20077;-60
2023/05/11 12:03:46;;;;;;;6.97;4.70;;;;;;;;;;5031591;28;20083;-60
2023/05/11 12:06:12;;;;;;;5.10;4.43;;;;;;;;;;5031036;28;20045;-60
2023/05/11 12:08:39;;;;;;;6.40;4.90;;;;;;;;;;5031280;28;20103;-60
2023/05/11 12:11:06;;;;;;;7.50;4.60;;;;;;;;;;5031137;28;20042;-60
2023/05/11 12:13:33;;;;;;;6.57;5.80;;;;;;;;;;5030977;28;20053;-60
2023/05/11 12:16:08;;;;;;;6.40;5.23;;;;;;;;;;5030653;28;20449;-60
2023/05/11 12:18:34;;;;;;;4.97;4.47;;;;;;;;;;5030903;28;20045;-60
2023/05/11 12:21:01;;;;;;;6.47;5.40;;;;;;;;;;5030984;28;20073;-60
2023/05/11 12:23:27;;;;;;;7.57;6.27;;;;;;;;;;5030143;28;20048;-60
2023/05/11 12:26:00;;;;;;;6.73;5.90;;;;;;;;;;5030727;28;20048;-61
2023/05/11 12:28:26;;;;;;;7.23;6.33;;;;;;;;;;5030563;28;20069;-60
2023/05/11 12:30:56;;;;;;;7.27;5.77;;;;;;;;;;5030742;28;20107;-60
2023/05/11 12:33:23;;;;;;;7.00;6.10;;;;;;;;;;5030335;28;20045;-60
2023/05/11 12:35:56;;;;;;;7.27;6.43;;;;;;;;;;5030666;28;20041;-60
2023/05/11 12:38:22;;;;;;;6.50;5.90;;;;;;;;;;5030402;28;20048;-60
2023/05/11 12:40:49;;;;;;;7.07;6.33;;;;;;;;;;5030502;28;20053;-61
2023/05/11 12:43:22;;;;;;;7.50;6.57;;;;;;;;;;5030449;28;20053;-60
2023/05/11 12:45:48;;;;;;;9.00;5.43;;;;;;;;;;5030135;28;20049;-60
2023/05/11 12:48:15;;;;;;;6.90;5.10;;;;;;;;;;5030137;28;20053;-60
2023/05/11 12:50:42;;;;;;;7.70;5.83;;;;;;;;;;5036149;28;20045;-60
2023/05/11 12:53:15;;;;;;;7.70;6.47;;;;;;;;;;5047798;28;20036;-60
2023/05/11 12:55:41;;;;;;;7.20;5.93;;;;;;;;;;5070394;28;20414;-60
2023/05/11 12:58:14;;;;;;;6.20;5.37;;;;;;;;;;5036784;28;20053;-60
2023/05/11 13:00:56;;;;;;;7.10;6.40;;;;;;;;;;5061157;28;20052;-60
2023/05/11 13:03:23;;;;;;;7.03;6.32;;;;;;;;;;5063723;28;20094;-60
2023/05/11 13:05:49;;;;;;;7.80;6.20;;;;;;;;;;5058432;28;20049;-58
2023/05/11 13:08:18;;;;;;;7.30;6.50;;;;;;;;;;5056155;28;20049;-58
2023/05/11 13:10:44;;;;;;;8.13;7.30;;;;;;;;;;5053324;28;20132;-58
2023/05/11 13:13:10;;;;;;;9.43;6.97;;;;;;;;;;5049484;28;20423;-59
2023/05/11 13:15:49;;;;;;;7.13;6.43;;;;;;;;;;5032467;28;20050;-60
2023/05/11 13:18:16;;;;;;;6.03;5.37;;;;;;;;;;5046311;28;20060;-60
2023/05/11 13:20:43;;;;;;;7.30;6.60;;;;;;;;;;5054083;28;20052;-59
2023/05/11 13:23:12;;;;;;;7.90;7.10;;;;;;;;;;5057734;28;20418;-59
2023/05/11 13:25:53;;;;;;;7.97;6.83;;;;;;;;;;5053575;28;20036;-59
2023/05/11 13:28:20;;;;;;;8.73;7.07;;;;;;;;;;5052833;28;20067;-59
2023/05/11 13:30:47;;;;;;;7.20;5.97;;;;;;;;;;5051532;28;20049;-59
2023/05/11 13:33:13;;;;;;;7.43;6.17;;;;;;;;;;5058700;28;20083;-59
2023/05/11 13:35:40;;;;;;;8.83;5.77;;;;;;;;;;5047459;28;20059;-60
2023/05/11 13:38:06;;;;;;;6.90;5.63;;;;;;;;;;5046528;28;20037;-60
2023/05/11 13:40:32;;;;;;;7.73;5.93;;;;;;;;;;5056267;28;20044;-59
2023/05/11 13:42:59;;;;;;;7.87;5.17;;;;;;;;;;5054629;28;20394;-59
2023/05/11 13:45:25;;;;;;;6.33;5.17;;;;;;;;;;5047431;28;20170;-60
2023/05/11 13:47:51;;;;;;;5.87;4.60;;;;;;;;;;5045697;28;20048;-60
2023/05/11 13:50:17;;;;;;;7.73;4.83;;;;;;;;;;5049344;28;20137;-60
2023/05/11 13:52:43;;;;;;;5.50;4.57;;;;;;;;;;5053372;28;20040;-60
2023/05/11 13:55:10;;;;;;;6.23;4.70;;;;;;;;;;5060058;28;20048;-59
2023/05/11 13:57:36;;;;;;;6.70;5.17;;;;;;;;;;5049578;28;20055;-60
2023/05/11 14:00:02;;;;;;;7.03;4.90;;;;;;;;;;5056523;28;20590;-59
2023/05/11 14:02:28;;;;;;;6.47;4.47;;;;;;;;;;5056513;28;20552;-60
2023/05/11 14:04:54;;;;;;;5.37;4.13;;;;;;;;;;5041498;28;20128;-60
2023/05/11 14:07:20;;;;;;;6.17;4.00;;;;;;;;;;5047284;28;20044;-60
2023/05/11 14:09:47;;;;;;;7.23;4.47;;;;;;;;;;5049086;28;20056;-60
2023/05/11 14:12:13;;;;;;;5.03;3.90;;;;;;;;;;5048837;28;20591;-60
2023/05/11 14:14:39;;;;;;;8.50;4.53;;;;;;;;;;5054218;28;20036;-60
2023/05/11 14:17:05;;;;;;;4.43;3.53;;;;;;;;;;5055645;28;20037;-60
2023/05/11 14:19:31;;;;;;;5.27;4.03;;;;;;;;;;5049889;28;20522;-60
2023/05/11 14:21:58;;;;;;;6.03;3.97;;;;;;;;;;5045360;28;20052;-60
2023/05/11 14:24:25;;;;;;;6.83;4.17;;;;;;;;;;5053146;28;20105;-59
2023/05/11 14:26:51;;;;;;;5.17;4.07;;;;;;;;;;5057340;28;20049;-60